sensor_id;sensor_type;location;lat;lon;timestamp;P1;durP1;ratioP1;P2;durP2;ratioP2
78458;SDS011;67753;42.684;23.330;2023-03-03T00:00:37;6.43;;;5.80;;
78458;SDS011;67753;42.684;23.330;2023-03-03T00:02:38;5.33;;;4.83;;
78458;SDS011;67753;42.684;23.330;2023-03-03T00:04:41;5.03;;;4.63;;
78458;SDS011;67753;42.684;23.330;2023-03-03T00:06:43;4.43;;;4.03;;
78458;SDS011;67753;42.684;23.330;2023-03-03T00:08:45;4.50;;;4.20;;
78458;SDS011;67753;42.684;23.330;2023-03-03T00:10:47;4.67;;;4.27;;
78458;SDS011;67753;42.684;23.330;2023-03-03T00:12:52;4.30;;;4.00;;
78458;SDS011;67753;42.684;23.330;2023-03-03T00:14:54;10.43;;;9.43;;
78458;SDS011;67753;42.684;23.330;2023-03-03T00:16:57;15.77;;;14.10;;
78458;SDS011;67753;42.684;23.330;2023-03-03T00:19:02;21.20;;;17.17;;
78458;SDS011;67753;42.684;23.330;2023-03-03T00:21:23;13.10;;;9.40;;
78458;SDS011;67753;42.684;23.330;2023-03-03T00:23:30;7.13;;;6.43;;
78458;SDS011;67753;42.684;23.330;2023-03-03T00:25:35;6.80;;;6.20;;
78458;SDS011;67753;42.684;23.330;2023-03-03T00:27:37;6.67;;;6.07;;
78458;SDS011;67753;42.684;23.330;2023-03-03T00:29:41;6.83;;;6.23;;
78458;SDS011;67753;42.684;23.330;2023-03-03T00:31:47;7.43;;;6.73;;
78458;SDS011;67753;42.684;23.330;2023-03-03T00:33:50;7.47;;;6.77;;
78458;SDS011;67753;42.684;23.330;2023-03-03T00:35:55;6.80;;;6.20;;
78458;SDS011;67753;42.684;23.330;2023-03-03T00:37:57;6.10;;;5.60;;
78458;SDS011;67753;42.684;23.330;2023-03-03T00:40:10;6.60;;;6.10;;
78458;SDS011;67753;42.684;23.330;2023-03-03T00:42:19;6.83;;;5.73;;
78458;SDS011;67753;42.684;23.330;2023-03-03T00:44:32;6.93;;;6.40;;
78458;SDS011;67753;42.684;23.330;2023-03-03T00:46:41;7.30;;;6.70;;
78458;SDS011;67753;42.684;23.330;2023-03-03T00:48:43;6.93;;;6.33;;
78458;SDS011;67753;42.684;23.330;2023-03-03T00:50:46;7.00;;;6.30;;
78458;SDS011;67753;42.684;23.330;2023-03-03T00:52:52;7.17;;;6.57;;
78458;SDS011;67753;42.684;23.330;2023-03-03T00:55:01;7.20;;;6.50;;
78458;SDS011;67753;42.684;23.330;2023-03-03T00:57:04;6.93;;;6.40;;
78458;SDS011;67753;42.684;23.330;2023-03-03T00:59:06;6.90;;;6.40;;
78458;SDS011;67753;42.684;23.330;2023-03-03T01:01:08;6.97;;;6.47;;
78458;SDS011;67753;42.684;23.330;2023-03-03T01:03:13;6.87;;;6.37;;
78458;SDS011;67753;42.684;23.330;2023-03-03T01:05:16;6.40;;;5.90;;
78458;SDS011;67753;42.684;23.330;2023-03-03T01:07:19;6.30;;;5.70;;
78458;SDS011;67753;42.684;23.330;2023-03-03T01:09:21;6.87;;;6.30;;
78458;SDS011;67753;42.684;23.330;2023-03-03T01:11:24;7.47;;;6.83;;
78458;SDS011;67753;42.684;23.330;2023-03-03T01:13:28;6.50;;;6.00;;
78458;SDS011;67753;42.684;23.330;2023-03-03T01:15:33;7.97;;;6.83;;
78458;SDS011;67753;42.684;23.330;2023-03-03T01:17:35;6.80;;;6.30;;
78458;SDS011;67753;42.684;23.330;2023-03-03T01:19:40;7.37;;;6.77;;
78458;SDS011;67753;42.684;23.330;2023-03-03T01:21:43;7.60;;;6.90;;
78458;SDS011;67753;42.684;23.330;2023-03-03T01:23:45;7.17;;;6.57;;
78458;SDS011;67753;42.684;23.330;2023-03-03T01:25:47;7.40;;;6.80;;
78458;SDS011;67753;42.684;23.330;2023-03-03T01:27:50;6.40;;;5.90;;
78458;SDS011;67753;42.684;23.330;2023-03-03T01:29:52;7.73;;;6.10;;
78458;SDS011;67753;42.684;23.330;2023-03-03T01:31:55;6.97;;;6.27;;
78458;SDS011;67753;42.684;23.330;2023-03-03T01:33:58;14.43;;;13.03;;
78458;SDS011;67753;42.684;23.330;2023-03-03T01:36:01;17.10;;;15.30;;
78458;SDS011;67753;42.684;23.330;2023-03-03T01:38:04;10.47;;;9.47;;
78458;SDS011;67753;42.684;23.330;2023-03-03T01:40:07;45.57;;;38.67;;
78458;SDS011;67753;42.684;23.330;2023-03-03T01:42:14;68.67;;;49.73;;
78458;SDS011;67753;42.684;23.330;2023-03-03T01:44:16;51.70;;;39.77;;
78458;SDS011;67753;42.684;23.330;2023-03-03T01:48:52;6.30;;;5.80;;
78458;SDS011;67753;42.684;23.330;2023-03-03T01:51:04;7.30;;;6.70;;
78458;SDS011;67753;42.684;23.330;2023-03-03T01:53:14;5.33;;;4.93;;
78458;SDS011;67753;42.684;23.330;2023-03-03T01:55:20;6.10;;;5.60;;
78458;SDS011;67753;42.684;23.330;2023-03-03T01:57:24;5.97;;;5.40;;
78458;SDS011;67753;42.684;23.330;2023-03-03T01:59:30;6.53;;;5.93;;
78458;SDS011;67753;42.684;23.330;2023-03-03T02:01:34;6.07;;;5.57;;
78458;SDS011;67753;42.684;23.330;2023-03-03T02:03:37;6.20;;;5.70;;
78458;SDS011;67753;42.684;23.330;2023-03-03T02:05:39;6.53;;;5.93;;
78458;SDS011;67753;42.684;23.330;2023-03-03T02:07:45;6.10;;;5.20;;
78458;SDS011;67753;42.684;23.330;2023-03-03T02:09:49;6.60;;;6.00;;
78458;SDS011;67753;42.684;23.330;2023-03-03T02:11:57;6.13;;;5.63;;
78458;SDS011;67753;42.684;23.330;2023-03-03T02:14:03;5.60;;;5.17;;
78458;SDS011;67753;42.684;23.330;2023-03-03T02:16:06;5.60;;;5.10;;
78458;SDS011;67753;42.684;23.330;2023-03-03T02:18:09;5.60;;;5.20;;
78458;SDS011;67753;42.684;23.330;2023-03-03T02:20:14;5.83;;;5.33;;
78458;SDS011;67753;42.684;23.330;2023-03-03T02:22:27;5.37;;;4.97;;
78458;SDS011;67753;42.684;23.330;2023-03-03T02:24:37;5.43;;;4.93;;
78458;SDS011;67753;42.684;23.330;2023-03-03T02:26:45;5.67;;;5.23;;
78458;SDS011;67753;42.684;23.330;2023-03-03T02:28:49;5.20;;;4.80;;
78458;SDS011;67753;42.684;23.330;2023-03-03T02:30:53;7.10;;;6.43;;
78458;SDS011;67753;42.684;23.330;2023-03-03T02:32:55;14.00;;;10.63;;
78458;SDS011;67753;42.684;23.330;2023-03-03T02:34:57;7.23;;;6.57;;
78458;SDS011;67753;42.684;23.330;2023-03-03T02:36:59;6.90;;;6.33;;
78458;SDS011;67753;42.684;23.330;2023-03-03T02:39:02;36.20;;;30.03;;
78458;SDS011;67753;42.684;23.330;2023-03-03T02:41:10;38.70;;;33.33;;
78458;SDS011;67753;42.684;23.330;2023-03-03T02:43:19;35.47;;;29.27;;
78458;SDS011;67753;42.684;23.330;2023-03-03T02:45:23;20.50;;;18.37;;
78458;SDS011;67753;42.684;23.330;2023-03-03T02:47:25;6.60;;;6.07;;
78458;SDS011;67753;42.684;23.330;2023-03-03T02:49:28;5.60;;;5.20;;
78458;SDS011;67753;42.684;23.330;2023-03-03T02:51:31;5.67;;;5.17;;
78458;SDS011;67753;42.684;23.330;2023-03-03T02:53:34;5.83;;;5.33;;
78458;SDS011;67753;42.684;23.330;2023-03-03T02:55:37;5.70;;;5.20;;
78458;SDS011;67753;42.684;23.330;2023-03-03T02:57:39;5.70;;;5.17;;
78458;SDS011;67753;42.684;23.330;2023-03-03T02:59:44;5.47;;;5.07;;
78458;SDS011;67753;42.684;23.330;2023-03-03T03:01:46;5.80;;;5.40;;
78458;SDS011;67753;42.684;23.330;2023-03-03T03:03:48;5.57;;;5.17;;
78458;SDS011;67753;42.684;23.330;2023-03-03T03:05:49;6.30;;;5.80;;
78458;SDS011;67753;42.684;23.330;2023-03-03T03:07:51;6.67;;;6.07;;
78458;SDS011;67753;42.684;23.330;2023-03-03T03:09:53;39.63;;;33.07;;
78458;SDS011;67753;42.684;23.330;2023-03-03T03:11:55;70.37;;;53.30;;
78458;SDS011;67753;42.684;23.330;2023-03-03T03:13:58;96.67;;;78.33;;
78458;SDS011;67753;42.684;23.330;2023-03-03T03:16:02;63.83;;;54.97;;
78458;SDS011;67753;42.684;23.330;2023-03-03T03:18:04;53.53;;;45.03;;
78458;SDS011;67753;42.684;23.330;2023-03-03T03:20:06;12.87;;;11.67;;
78458;SDS011;67753;42.684;23.330;2023-03-03T03:22:09;7.77;;;7.07;;
78458;SDS011;67753;42.684;23.330;2023-03-03T03:24:11;7.03;;;6.53;;
78458;SDS011;67753;42.684;23.330;2023-03-03T03:26:13;7.70;;;7.10;;
78458;SDS011;67753;42.684;23.330;2023-03-03T03:28:15;7.03;;;6.53;;
78458;SDS011;67753;42.684;23.330;2023-03-03T03:30:18;6.83;;;6.30;;
78458;SDS011;67753;42.684;23.330;2023-03-03T03:32:23;8.20;;;7.57;;
78458;SDS011;67753;42.684;23.330;2023-03-03T03:34:25;7.33;;;6.73;;
78458;SDS011;67753;42.684;23.330;2023-03-03T03:36:27;6.83;;;6.23;;
78458;SDS011;67753;42.684;23.330;2023-03-03T03:38:29;7.43;;;6.83;;
78458;SDS011;67753;42.684;23.330;2023-03-03T03:40:31;7.83;;;7.13;;
78458;SDS011;67753;42.684;23.330;2023-03-03T03:42:33;7.97;;;7.30;;
78458;SDS011;67753;42.684;23.330;2023-03-03T03:44:35;7.63;;;7.03;;
78458;SDS011;67753;42.684;23.330;2023-03-03T03:46:37;8.87;;;8.07;;
78458;SDS011;67753;42.684;23.330;2023-03-03T03:48:41;8.00;;;7.40;;
78458;SDS011;67753;42.684;23.330;2023-03-03T03:50:43;8.50;;;7.80;;
78458;SDS011;67753;42.684;23.330;2023-03-03T03:52:45;9.50;;;8.60;;
78458;SDS011;67753;42.684;23.330;2023-03-03T03:54:47;8.07;;;7.37;;
78458;SDS011;67753;42.684;23.330;2023-03-03T03:56:49;8.70;;;7.90;;
78458;SDS011;67753;42.684;23.330;2023-03-03T03:58:53;8.80;;;8.00;;
78458;SDS011;67753;42.684;23.330;2023-03-03T04:00:54;10.03;;;9.10;;
78458;SDS011;67753;42.684;23.330;2023-03-03T04:03:03;10.20;;;9.30;;
78458;SDS011;67753;42.684;23.330;2023-03-03T04:05:08;9.97;;;9.07;;
78458;SDS011;67753;42.684;23.330;2023-03-03T04:07:10;10.37;;;9.43;;
78458;SDS011;67753;42.684;23.330;2023-03-03T04:09:12;9.83;;;8.93;;
78458;SDS011;67753;42.684;23.330;2023-03-03T04:11:13;10.70;;;9.70;;
78458;SDS011;67753;42.684;23.330;2023-03-03T04:13:16;10.10;;;9.10;;
78458;SDS011;67753;42.684;23.330;2023-03-03T04:15:18;10.57;;;9.57;;
78458;SDS011;67753;42.684;23.330;2023-03-03T04:17:21;9.47;;;8.67;;
78458;SDS011;67753;42.684;23.330;2023-03-03T04:19:24;10.20;;;9.20;;
78458;SDS011;67753;42.684;23.330;2023-03-03T04:21:28;10.70;;;9.70;;
78458;SDS011;67753;42.684;23.330;2023-03-03T04:23:30;10.30;;;9.40;;
78458;SDS011;67753;42.684;23.330;2023-03-03T04:25:32;9.87;;;8.87;;
78458;SDS011;67753;42.684;23.330;2023-03-03T04:27:34;11.07;;;10.07;;
78458;SDS011;67753;42.684;23.330;2023-03-03T04:29:37;12.67;;;10.30;;
78458;SDS011;67753;42.684;23.330;2023-03-03T04:31:39;11.00;;;9.90;;
78458;SDS011;67753;42.684;23.330;2023-03-03T04:33:41;11.50;;;10.40;;
78458;SDS011;67753;42.684;23.330;2023-03-03T04:35:43;10.57;;;9.57;;
78458;SDS011;67753;42.684;23.330;2023-03-03T04:37:47;12.00;;;10.80;;
78458;SDS011;67753;42.684;23.330;2023-03-03T04:39:49;11.13;;;10.03;;
78458;SDS011;67753;42.684;23.330;2023-03-03T04:41:50;11.37;;;10.27;;
78458;SDS011;67753;42.684;23.330;2023-03-03T04:43:52;11.00;;;9.97;;
78458;SDS011;67753;42.684;23.330;2023-03-03T04:45:54;11.53;;;10.40;;
78458;SDS011;67753;42.684;23.330;2023-03-03T04:47:56;10.43;;;9.50;;
78458;SDS011;67753;42.684;23.330;2023-03-03T04:49:57;11.40;;;10.30;;
78458;SDS011;67753;42.684;23.330;2023-03-03T04:52:00;11.10;;;10.00;;
78458;SDS011;67753;42.684;23.330;2023-03-03T04:54:05;11.67;;;10.47;;
78458;SDS011;67753;42.684;23.330;2023-03-03T04:56:08;12.17;;;10.97;;
78458;SDS011;67753;42.684;23.330;2023-03-03T04:58:10;12.10;;;11.00;;
78458;SDS011;67753;42.684;23.330;2023-03-03T05:00:12;12.17;;;10.97;;
78458;SDS011;67753;42.684;23.330;2023-03-03T05:02:14;11.97;;;10.87;;
78458;SDS011;67753;42.684;23.330;2023-03-03T05:04:18;12.00;;;10.17;;
78458;SDS011;67753;42.684;23.330;2023-03-03T05:06:20;11.63;;;10.43;;
78458;SDS011;67753;42.684;23.330;2023-03-03T05:08:23;12.97;;;11.47;;
78458;SDS011;67753;42.684;23.330;2023-03-03T05:10:27;13.20;;;11.80;;
78458;SDS011;67753;42.684;23.330;2023-03-03T05:12:29;12.13;;;10.93;;
78458;SDS011;67753;42.684;23.330;2023-03-03T05:14:31;12.33;;;11.13;;
78458;SDS011;67753;42.684;23.330;2023-03-03T05:16:33;12.50;;;11.30;;
78458;SDS011;67753;42.684;23.330;2023-03-03T05:18:35;12.87;;;11.60;;
78458;SDS011;67753;42.684;23.330;2023-03-03T05:20:38;12.73;;;11.43;;
78458;SDS011;67753;42.684;23.330;2023-03-03T05:22:41;12.67;;;11.43;;
78458;SDS011;67753;42.684;23.330;2023-03-03T05:24:43;11.80;;;10.80;;
78458;SDS011;67753;42.684;23.330;2023-03-03T05:26:49;12.67;;;11.47;;
78458;SDS011;67753;42.684;23.330;2023-03-03T05:28:51;13.47;;;12.13;;
78458;SDS011;67753;42.684;23.330;2023-03-03T05:30:53;13.27;;;12.07;;
78458;SDS011;67753;42.684;23.330;2023-03-03T05:32:57;13.60;;;12.30;;
78458;SDS011;67753;42.684;23.330;2023-03-03T05:35:00;14.20;;;12.67;;
78458;SDS011;67753;42.684;23.330;2023-03-03T05:37:02;15.00;;;13.50;;
78458;SDS011;67753;42.684;23.330;2023-03-03T05:39:05;13.57;;;12.17;;
78458;SDS011;67753;42.684;23.330;2023-03-03T05:41:07;15.93;;;14.33;;
78458;SDS011;67753;42.684;23.330;2023-03-03T05:43:11;14.97;;;13.47;;
78458;SDS011;67753;42.684;23.330;2023-03-03T05:45:12;14.53;;;13.17;;
78458;SDS011;67753;42.684;23.330;2023-03-03T05:47:14;14.53;;;13.03;;
78458;SDS011;67753;42.684;23.330;2023-03-03T05:49:16;15.63;;;13.53;;
78458;SDS011;67753;42.684;23.330;2023-03-03T05:51:18;15.03;;;13.50;;
78458;SDS011;67753;42.684;23.330;2023-03-03T05:53:20;15.63;;;13.73;;
78458;SDS011;67753;42.684;23.330;2023-03-03T05:55:22;16.20;;;14.47;;
78458;SDS011;67753;42.684;23.330;2023-03-03T05:57:24;15.30;;;13.80;;
78458;SDS011;67753;42.684;23.330;2023-03-03T05:59:28;17.53;;;15.77;;
78458;SDS011;67753;42.684;23.330;2023-03-03T06:01:30;15.23;;;13.67;;
78458;SDS011;67753;42.684;23.330;2023-03-03T06:03:33;17.83;;;16.07;;
78458;SDS011;67753;42.684;23.330;2023-03-03T06:05:35;17.40;;;14.23;;
78458;SDS011;67753;42.684;23.330;2023-03-03T06:07:37;15.00;;;13.43;;
78458;SDS011;67753;42.684;23.330;2023-03-03T06:09:39;14.07;;;12.63;;
78458;SDS011;67753;42.684;23.330;2023-03-03T06:11:41;13.50;;;12.30;;
78458;SDS011;67753;42.684;23.330;2023-03-03T06:13:43;12.90;;;11.60;;
78458;SDS011;67753;42.684;23.330;2023-03-03T06:15:46;13.77;;;12.00;;
78458;SDS011;67753;42.684;23.330;2023-03-03T06:17:48;13.67;;;12.37;;
78458;SDS011;67753;42.684;23.330;2023-03-03T06:19:50;13.30;;;12.07;;
78458;SDS011;67753;42.684;23.330;2023-03-03T06:21:52;13.20;;;12.00;;
78458;SDS011;67753;42.684;23.330;2023-03-03T06:23:54;13.90;;;12.50;;
78458;SDS011;67753;42.684;23.330;2023-03-03T06:25:56;12.37;;;11.27;;
78458;SDS011;67753;42.684;23.330;2023-03-03T06:27:58;13.33;;;12.03;;
78458;SDS011;67753;42.684;23.330;2023-03-03T06:30:00;12.70;;;11.50;;
78458;SDS011;67753;42.684;23.330;2023-03-03T06:32:04;13.27;;;12.07;;
78458;SDS011;67753;42.684;23.330;2023-03-03T06:34:06;14.30;;;12.80;;
78458;SDS011;67753;42.684;23.330;2023-03-03T06:36:07;14.03;;;12.60;;
78458;SDS011;67753;42.684;23.330;2023-03-03T06:38:10;12.67;;;11.47;;
78458;SDS011;67753;42.684;23.330;2023-03-03T06:40:12;12.97;;;11.77;;
78458;SDS011;67753;42.684;23.330;2023-03-03T06:42:14;12.63;;;11.43;;
78458;SDS011;67753;42.684;23.330;2023-03-03T06:44:16;13.00;;;11.80;;
78458;SDS011;67753;42.684;23.330;2023-03-03T06:46:18;12.93;;;11.63;;
78458;SDS011;67753;42.684;23.330;2023-03-03T06:48:21;12.33;;;11.20;;
78458;SDS011;67753;42.684;23.330;2023-03-03T06:50:23;13.80;;;12.47;;
78458;SDS011;67753;42.684;23.330;2023-03-03T06:52:25;12.33;;;11.13;;
78458;SDS011;67753;42.684;23.330;2023-03-03T06:54:28;11.57;;;10.47;;
78458;SDS011;67753;42.684;23.330;2023-03-03T06:56:30;12.10;;;10.90;;
78458;SDS011;67753;42.684;23.330;2023-03-03T06:58:36;12.40;;;11.20;;
78458;SDS011;67753;42.684;23.330;2023-03-03T07:00:39;12.67;;;11.53;;
78458;SDS011;67753;42.684;23.330;2023-03-03T07:02:43;12.00;;;10.90;;
78458;SDS011;67753;42.684;23.330;2023-03-03T07:04:46;11.27;;;10.27;;
78458;SDS011;67753;42.684;23.330;2023-03-03T07:06:48;11.10;;;10.10;;
78458;SDS011;67753;42.684;23.330;2023-03-03T07:08:50;11.53;;;10.53;;
78458;SDS011;67753;42.684;23.330;2023-03-03T07:10:53;11.13;;;9.40;;
78458;SDS011;67753;42.684;23.330;2023-03-03T07:12:55;9.93;;;9.03;;
78458;SDS011;67753;42.684;23.330;2023-03-03T07:15:12;10.27;;;9.33;;
78458;SDS011;67753;42.684;23.330;2023-03-03T07:17:17;9.60;;;8.70;;
78458;SDS011;67753;42.684;23.330;2023-03-03T07:19:22;11.37;;;10.30;;
78458;SDS011;67753;42.684;23.330;2023-03-03T07:21:32;9.63;;;8.53;;
78458;SDS011;67753;42.684;23.330;2023-03-03T07:23:36;10.30;;;9.40;;
78458;SDS011;67753;42.684;23.330;2023-03-03T07:25:41;11.67;;;9.73;;
78458;SDS011;67753;42.684;23.330;2023-03-03T07:27:45;10.17;;;9.27;;
78458;SDS011;67753;42.684;23.330;2023-03-03T07:29:48;14.27;;;12.97;;
78458;SDS011;67753;42.684;23.330;2023-03-03T07:31:51;11.83;;;10.63;;
78458;SDS011;67753;42.684;23.330;2023-03-03T07:33:56;10.90;;;9.97;;
78458;SDS011;67753;42.684;23.330;2023-03-03T07:36:00;12.63;;;11.53;;
78458;SDS011;67753;42.684;23.330;2023-03-03T07:38:11;10.97;;;9.97;;
78458;SDS011;67753;42.684;23.330;2023-03-03T07:40:27;10.97;;;9.97;;
78458;SDS011;67753;42.684;23.330;2023-03-03T07:42:36;10.77;;;9.83;;
78458;SDS011;67753;42.684;23.330;2023-03-03T07:44:41;13.00;;;9.77;;
78458;SDS011;67753;42.684;23.330;2023-03-03T07:46:45;12.33;;;10.87;;
78458;SDS011;67753;42.684;23.330;2023-03-03T07:48:48;13.73;;;11.43;;
78458;SDS011;67753;42.684;23.330;2023-03-03T07:50:50;11.40;;;10.20;;
78458;SDS011;67753;42.684;23.330;2023-03-03T07:52:53;19.87;;;11.77;;
78458;SDS011;67753;42.684;23.330;2023-03-03T07:54:59;24.50;;;11.90;;
78458;SDS011;67753;42.684;23.330;2023-03-03T07:57:20;25.47;;;19.77;;
78458;SDS011;67753;42.684;23.330;2023-03-03T07:59:25;35.77;;;19.10;;
78458;SDS011;67753;42.684;23.330;2023-03-03T08:01:29;48.93;;;18.63;;
78458;SDS011;67753;42.684;23.330;2023-03-03T08:03:39;41.87;;;19.97;;
78458;SDS011;67753;42.684;23.330;2023-03-03T08:05:46;30.97;;;14.10;;
78458;SDS011;67753;42.684;23.330;2023-03-03T08:07:49;24.23;;;12.77;;
78458;SDS011;67753;42.684;23.330;2023-03-03T08:09:55;16.17;;;11.23;;
78458;SDS011;67753;42.684;23.330;2023-03-03T08:12:00;13.80;;;10.27;;
78458;SDS011;67753;42.684;23.330;2023-03-03T08:14:27;14.97;;;11.03;;
78458;SDS011;67753;42.684;23.330;2023-03-03T08:16:34;20.47;;;11.90;;
78458;SDS011;67753;42.684;23.330;2023-03-03T08:18:39;27.97;;;12.23;;
78458;SDS011;67753;42.684;23.330;2023-03-03T08:20:47;16.67;;;11.33;;
78458;SDS011;67753;42.684;23.330;2023-03-03T08:22:50;14.67;;;13.00;;
78458;SDS011;67753;42.684;23.330;2023-03-03T08:24:52;13.47;;;12.17;;
78458;SDS011;67753;42.684;23.330;2023-03-03T08:26:54;15.03;;;13.53;;
78458;SDS011;67753;42.684;23.330;2023-03-03T08:28:58;15.93;;;14.33;;
78458;SDS011;67753;42.684;23.330;2023-03-03T08:31:00;15.07;;;13.67;;
78458;SDS011;67753;42.684;23.330;2023-03-03T08:33:02;13.73;;;12.40;;
78458;SDS011;67753;42.684;23.330;2023-03-03T08:35:05;15.30;;;13.97;;
78458;SDS011;67753;42.684;23.330;2023-03-03T08:37:07;16.30;;;14.80;;
78458;SDS011;67753;42.684;23.330;2023-03-03T08:39:09;13.73;;;12.50;;
78458;SDS011;67753;42.684;23.330;2023-03-03T08:41:10;13.47;;;12.27;;
78458;SDS011;67753;42.684;23.330;2023-03-03T08:43:13;16.23;;;14.73;;
78458;SDS011;67753;42.684;23.330;2023-03-03T08:45:17;14.17;;;12.87;;
78458;SDS011;67753;42.684;23.330;2023-03-03T08:47:19;15.07;;;13.70;;
78458;SDS011;67753;42.684;23.330;2023-03-03T08:49:21;14.30;;;13.00;;
78458;SDS011;67753;42.684;23.330;2023-03-03T08:51:23;14.40;;;13.00;;
78458;SDS011;67753;42.684;23.330;2023-03-03T08:53:26;14.13;;;12.83;;
78458;SDS011;67753;42.684;23.330;2023-03-03T08:55:28;13.83;;;12.43;;
78458;SDS011;67753;42.684;23.330;2023-03-03T08:57:31;13.57;;;12.27;;
78458;SDS011;67753;42.684;23.330;2023-03-03T08:59:33;13.70;;;12.37;;
78458;SDS011;67753;42.684;23.330;2023-03-03T09:01:39;15.57;;;13.90;;
78458;SDS011;67753;42.684;23.330;2023-03-03T09:03:43;14.57;;;13.03;;
78458;SDS011;67753;42.684;23.330;2023-03-03T09:05:46;17.97;;;13.03;;
78458;SDS011;67753;42.684;23.330;2023-03-03T09:07:48;13.63;;;12.23;;
78458;SDS011;67753;42.684;23.330;2023-03-03T09:09:51;15.00;;;12.23;;
78458;SDS011;67753;42.684;23.330;2023-03-03T09:11:53;13.77;;;12.37;;
78458;SDS011;67753;42.684;23.330;2023-03-03T09:14:05;13.83;;;12.43;;
78458;SDS011;67753;42.684;23.330;2023-03-03T09:16:11;11.67;;;10.53;;
78458;SDS011;67753;42.684;23.330;2023-03-03T09:18:17;12.93;;;11.63;;
78458;SDS011;67753;42.684;23.330;2023-03-03T09:20:30;12.80;;;11.57;;
78458;SDS011;67753;42.684;23.330;2023-03-03T09:22:35;12.47;;;11.20;;
78458;SDS011;67753;42.684;23.330;2023-03-03T09:24:40;12.30;;;11.10;;
78458;SDS011;67753;42.684;23.330;2023-03-03T09:26:43;12.43;;;10.97;;
78458;SDS011;67753;42.684;23.330;2023-03-03T09:28:47;12.53;;;11.37;;
78458;SDS011;67753;42.684;23.330;2023-03-03T09:30:49;11.73;;;10.63;;
78458;SDS011;67753;42.684;23.330;2023-03-03T09:32:52;28.83;;;24.87;;
78458;SDS011;67753;42.684;23.330;2023-03-03T09:34:57;51.47;;;45.30;;
78458;SDS011;67753;42.684;23.330;2023-03-03T09:37:01;32.80;;;29.30;;
78458;SDS011;67753;42.684;23.330;2023-03-03T09:39:19;23.40;;;20.57;;
78458;SDS011;67753;42.684;23.330;2023-03-03T09:41:41;19.60;;;17.50;;
78458;SDS011;67753;42.684;23.330;2023-03-03T09:44:17;19.87;;;17.83;;
78458;SDS011;67753;42.684;23.330;2023-03-03T09:46:31;17.73;;;15.83;;
78458;SDS011;67753;42.684;23.330;2023-03-03T09:48:54;18.93;;;16.83;;
78458;SDS011;67753;42.684;23.330;2023-03-03T09:51:25;15.33;;;13.73;;
78458;SDS011;67753;42.684;23.330;2023-03-03T09:53:43;13.53;;;12.23;;
78458;SDS011;67753;42.684;23.330;2023-03-03T09:55:55;16.47;;;14.83;;
78458;SDS011;67753;42.684;23.330;2023-03-03T09:58:18;11.13;;;10.23;;
78458;SDS011;67753;42.684;23.330;2023-03-03T10:00:30;11.23;;;10.27;;
78458;SDS011;67753;42.684;23.330;2023-03-03T10:02:44;11.40;;;10.30;;
78458;SDS011;67753;42.684;23.330;2023-03-03T10:07:24;11.20;;;10.20;;
78458;SDS011;67753;42.684;23.330;2023-03-03T10:09:40;10.17;;;9.30;;
78458;SDS011;67753;42.684;23.330;2023-03-03T10:12:00;11.73;;;10.63;;
78458;SDS011;67753;42.684;23.330;2023-03-03T10:14:23;20.27;;;18.27;;
78458;SDS011;67753;42.684;23.330;2023-03-03T10:16:44;18.47;;;16.13;;
78458;SDS011;67753;42.684;23.330;2023-03-03T10:18:56;13.63;;;12.37;;
78458;SDS011;67753;42.684;23.330;2023-03-03T10:21:03;11.70;;;10.60;;
78458;SDS011;67753;42.684;23.330;2023-03-03T10:23:17;11.23;;;10.23;;
78458;SDS011;67753;42.684;23.330;2023-03-03T10:25:25;11.40;;;10.23;;
78458;SDS011;67753;42.684;23.330;2023-03-03T10:30:26;17.57;;;15.93;;
78458;SDS011;67753;42.684;23.330;2023-03-03T10:32:42;12.77;;;11.57;;
78458;SDS011;67753;42.684;23.330;2023-03-03T10:34:57;16.03;;;14.53;;
78458;SDS011;67753;42.684;23.330;2023-03-03T10:37:45;13.27;;;12.07;;
78458;SDS011;67753;42.684;23.330;2023-03-03T10:40:05;15.73;;;14.30;;
78458;SDS011;67753;42.684;23.330;2023-03-03T10:42:16;12.03;;;10.93;;
78458;SDS011;67753;42.684;23.330;2023-03-03T10:44:34;12.67;;;11.43;;
78458;SDS011;67753;42.684;23.330;2023-03-03T10:46:53;12.73;;;11.63;;
78458;SDS011;67753;42.684;23.330;2023-03-03T10:49:16;16.30;;;13.17;;
78458;SDS011;67753;42.684;23.330;2023-03-03T10:51:37;11.07;;;10.07;;
78458;SDS011;67753;42.684;23.330;2023-03-03T10:53:54;11.10;;;10.20;;
78458;SDS011;67753;42.684;23.330;2023-03-03T10:56:16;11.37;;;10.37;;
78458;SDS011;67753;42.684;23.330;2023-03-03T10:58:39;11.87;;;10.97;;
78458;SDS011;67753;42.684;23.330;2023-03-03T11:00:51;11.40;;;10.37;;
78458;SDS011;67753;42.684;23.330;2023-03-03T11:03:12;12.03;;;11.03;;
78458;SDS011;67753;42.684;23.330;2023-03-03T11:05:36;10.90;;;9.93;;
78458;SDS011;67753;42.684;23.330;2023-03-03T11:07:43;11.20;;;10.20;;
78458;SDS011;67753;42.684;23.330;2023-03-03T11:09:56;13.00;;;11.70;;
78458;SDS011;67753;42.684;23.330;2023-03-03T11:12:11;12.63;;;11.53;;
78458;SDS011;67753;42.684;23.330;2023-03-03T11:14:26;12.10;;;11.00;;
78458;SDS011;67753;42.684;23.330;2023-03-03T11:16:38;11.53;;;10.50;;
78458;SDS011;67753;42.684;23.330;2023-03-03T11:18:51;12.40;;;11.20;;
78458;SDS011;67753;42.684;23.330;2023-03-03T11:21:05;12.93;;;11.83;;
78458;SDS011;67753;42.684;23.330;2023-03-03T11:23:20;13.00;;;11.70;;
78458;SDS011;67753;42.684;23.330;2023-03-03T11:25:34;13.70;;;12.40;;
78458;SDS011;67753;42.684;23.330;2023-03-03T11:32:47;17.00;;;15.50;;
78458;SDS011;67753;42.684;23.330;2023-03-03T11:34:59;16.53;;;15.03;;
78458;SDS011;67753;42.684;23.330;2023-03-03T11:37:17;16.23;;;14.63;;
78458;SDS011;67753;42.684;23.330;2023-03-03T11:39:24;17.20;;;15.60;;
78458;SDS011;67753;42.684;23.330;2023-03-03T11:41:30;17.73;;;16.13;;
78458;SDS011;67753;42.684;23.330;2023-03-03T11:43:40;17.70;;;16.00;;
78458;SDS011;67753;42.684;23.330;2023-03-03T11:45:46;16.60;;;14.90;;
78458;SDS011;67753;42.684;23.330;2023-03-03T11:47:53;18.67;;;16.90;;
78458;SDS011;67753;42.684;23.330;2023-03-03T11:50:01;20.63;;;18.60;;
78458;SDS011;67753;42.684;23.330;2023-03-03T11:52:12;19.23;;;17.43;;
78458;SDS011;67753;42.684;23.330;2023-03-03T11:54:26;19.23;;;17.53;;
78458;SDS011;67753;42.684;23.330;2023-03-03T11:56:32;21.67;;;19.67;;
78458;SDS011;67753;42.684;23.330;2023-03-03T11:58:41;20.47;;;18.47;;
78458;SDS011;67753;42.684;23.330;2023-03-03T12:00:49;19.03;;;17.27;;
78458;SDS011;67753;42.684;23.330;2023-03-03T12:03:01;19.63;;;17.93;;
78458;SDS011;67753;42.684;23.330;2023-03-03T12:05:28;19.60;;;17.50;;
78458;SDS011;67753;42.684;23.330;2023-03-03T12:07:39;18.10;;;16.47;;
78458;SDS011;67753;42.684;23.330;2023-03-03T12:09:50;19.90;;;18.10;;
78458;SDS011;67753;42.684;23.330;2023-03-03T12:12:03;20.00;;;18.10;;
78458;SDS011;67753;42.684;23.330;2023-03-03T12:14:11;19.20;;;17.40;;
78458;SDS011;67753;42.684;23.330;2023-03-03T12:16:31;16.83;;;15.40;;
78458;SDS011;67753;42.684;23.330;2023-03-03T12:21:09;19.87;;;18.07;;
78458;SDS011;67753;42.684;23.330;2023-03-03T12:25:51;19.73;;;18.03;;
78458;SDS011;67753;42.684;23.330;2023-03-03T12:28:01;26.47;;;24.07;;
78458;SDS011;67753;42.684;23.330;2023-03-03T12:30:13;20.10;;;18.20;;